Terminal Aerodrome Forecast
Issued by NWS Boston, MA

Home | Current Version | Previous Version | Text Only | Print | Product List | Glossary On
Versions: 1 2 3 4 5 6 7 8 9 10 11 12 13 14 15 16 17 18 19 20 21 22 23 24 25 26 27 28 29 30 31 32 33 34 35 36 37 38 39 40 41 42 43 44 45 46 47 48 49 50
000
FTUS41 KBOX 241725
TAFPVD
TAF
KPVD 241725Z 2418/2518 08006KT P6SM FEW030 BKN100
     FM242100 08007KT P6SM SCT100 SCT200
     FM250700 07010KT P6SM SCT040 BKN120
     FM251200 07011G20KT P6SM -SHRA OVC030
     FM251400 07011G22KT P6SM -SHRA OVC008=

USA.gov is the U.S. government's official web portal to all federal, state and local government web resources and services.